CDT,Max TemperatureF,Mean TemperatureF,Min TemperatureF,Max Dew PointF,MeanDew PointF,Min DewpointF,Max Humidity, Mean Humidity, Min Humidity, Max Sea Level PressureIn, Mean Sea Level PressureIn, Min Sea Level PressureIn, Max VisibilityMiles, Mean VisibilityMiles, Min VisibilityMiles, Max Wind SpeedMPH, Mean Wind SpeedMPH, Max Gust SpeedMPH,PrecipitationIn, CloudCover, Events, WindDirDegrees
2013-7-1,89,79,69,66,63,60,84,62,40,29.91,29.84,29.78,10,10,10,14,5,17,0.00,4,,303
2013-7-2,91,80,68,68,65,63,84,64,43,30.01,29.96,29.90,10,10,10,10,2,14,0.00,4,,183
2013-7-3,88,81,73,73,70,68,93,73,53,30.04,29.99,29.95,10,9,2,14,6,18,0.44,6,Rain,26
2013-7-4,86,79,72,75,72,68,93,77,61,30.01,29.97,29.93,10,7,1,15,6,21,1.47,6,Rain-Thunderstorm,74
2013-7-5,78,75,72,73,71,69,87,85,82,30.11,30.04,30.00,10,8,4,18,7,24,0.16,5,Rain-Thunderstorm,129
2013-7-6,78,75,71,73,71,69,94,87,79,30.08,30.04,30.01,10,8,0,10,5,13,1.69,7,Fog-Rain,77
2013-7-7,80,77,73,74,72,70,94,90,85,30.14,30.09,30.03,10,8,0,16,4,21,1.02,7,Fog-Rain,125
2013-7-8,85,79,73,74,73,71,94,82,70,30.19,30.15,30.10,10,8,2,16,2,21,0.09,6,Rain-Thunderstorm,198
2013-7-9,91,81,70,74,71,68,100,76,52,30.20,30.15,30.09,10,8,1,13,3,16,0.00,4,Thunderstorm,219
2013-7-10,91,83,74,75,73,71,94,77,59,30.12,30.06,29.99,10,10,7,14,4,17,T,3,Thunderstorm,241
2013-7-11,85,79,73,75,72,71,94,84,74,30.03,29.97,29.89,10,7,1,17,5,21,1.22,6,Rain-Thunderstorm,226
2013-7-12,92,81,70,75,70,66,93,75,56,29.95,29.91,29.86,10,9,2,16,3,21,0.87,3,Rain-Thunderstorm,312
2013-7-13,90,80,70,74,70,67,93,76,59,29.99,29.92,29.88,10,10,7,18,3,24,T,4,Fog-Rain-Thunderstorm,90
2013-7-14,91,81,70,72,68,65,90,68,46,30.05,29.99,29.93,10,10,10,15,4,20,0.00,3,Thunderstorm,69
2013-7-15,88,81,74,75,72,70,94,78,61,30.14,30.10,30.03,10,8,2,21,6,24,0.01,5,Rain-Thunderstorm,83
2013-7-16,89,81,73,73,71,69,94,77,59,30.20,30.15,30.10,10,9,7,22,10,28,0.00,5,Thunderstorm,84
2013-7-17,93,83,72,74,71,68,94,71,47,30.23,30.18,30.12,10,10,10,14,6,17,0.00,2,,67
2013-7-18,92,83,73,72,71,69,93,73,52,30.15,30.09,30.03,10,10,10,21,4,26,0.01,4,Rain-Thunderstorm,74
2013-7-19,89,80,71,73,72,69,94,76,57,30.09,30.03,29.97,10,9,2,21,5,28,0.06,4,Rain,64
2013-7-20,87,80,73,75,73,71,94,79,63,30.03,29.99,29.93,10,8,1,14,5,17,0.39,5,Rain-Thunderstorm,79
2013-7-21,88,81,73,75,72,70,94,77,59,30.07,30.04,30.00,10,9,1,20,7,30,0.33,4,Rain-Thunderstorm,223
2013-7-22,87,80,73,76,71,68,94,84,74,30.09,30.06,30.03,10,8,0,22,5,38,0.72,5,Rain-Thunderstorm,222
2013-7-23,91,83,75,76,73,69,94,75,56,30.07,30.01,29.93,10,8,3,14,6,20,0.01,5,,242
2013-7-24,91,82,73,75,73,70,94,77,59,29.98,29.94,29.89,10,7,3,23,6,30,0.06,6,Rain-Thunderstorm,272
2013-7-25,90,81,72,73,71,69,93,75,56,30.03,29.97,29.89,10,9,5,12,5,16,T,4,Rain,306
2013-7-26,92,82,71,71,69,66,93,69,44,30.06,30.02,29.98,10,10,5,10,2,15,0.01,3,,268
2013-7-27,82,77,72,73,71,68,94,82,69,30.01,29.95,29.89,10,9,2,18,5,25,0.60,6,Rain-Thunderstorm,183
2013-7-28,90,81,72,77,73,69,94,77,59,30.01,29.94,29.88,10,10,8,15,4,21,0.00,6,,239
2013-7-29,93,84,74,76,74,72,94,75,56,30.12,30.07,29.99,10,7,3,21,4,28,0.00,4,,53
2013-7-30,91,83,75,76,74,72,94,77,59,30.16,30.12,30.07,10,9,5,12,5,15,0.02,4,Rain-Thunderstorm,178
2013-7-31,92,85,77,75,74,71,91,74,56,30.12,30.06,30.00,10,9,6,14,5,18,0.00,5,Thunderstorm,219